sensor_id;sensor_type;location;lat;lon;timestamp;P1;durP1;ratioP1;P2;durP2;ratioP2
4391;SDS011;2210;51.938;8.488;2022-09-24T00:01:08;6.85;;;6.13;;
4391;SDS011;2210;51.938;8.488;2022-09-24T00:05:11;7.50;;;6.23;;
4391;SDS011;2210;51.938;8.488;2022-09-24T00:09:15;7.77;;;6.40;;
4391;SDS011;2210;51.938;8.488;2022-09-24T00:13:20;8.23;;;6.57;;
4391;SDS011;2210;51.938;8.488;2022-09-24T00:17:21;6.97;;;6.20;;
4391;SDS011;2210;51.938;8.488;2022-09-24T00:25:23;11.30;;;7.60;;
4391;SDS011;2210;51.938;8.488;2022-09-24T00:29:42;7.27;;;5.80;;
4391;SDS011;2210;51.938;8.488;2022-09-24T00:33:42;10.00;;;5.70;;
4391;SDS011;2210;51.938;8.488;2022-09-24T00:37:43;8.93;;;6.80;;
4391;SDS011;2210;51.938;8.488;2022-09-24T00:41:43;7.03;;;6.20;;
4391;SDS011;2210;51.938;8.488;2022-09-24T00:45:46;9.33;;;5.80;;
4391;SDS011;2210;51.938;8.488;2022-09-24T00:49:47;6.50;;;5.80;;
4391;SDS011;2210;51.938;8.488;2022-09-24T00:53:50;7.23;;;6.50;;
4391;SDS011;2210;51.938;8.488;2022-09-24T00:57:55;7.10;;;6.40;;
4391;SDS011;2210;51.938;8.488;2022-09-24T01:01:57;6.53;;;5.90;;
4391;SDS011;2210;51.938;8.488;2022-09-24T01:05:58;10.07;;;6.70;;
4391;SDS011;2210;51.938;8.488;2022-09-24T01:09:58;7.57;;;6.87;;
4391;SDS011;2210;51.938;8.488;2022-09-24T01:14:06;6.00;;;5.50;;
4391;SDS011;2210;51.938;8.488;2022-09-24T01:18:28;6.67;;;6.07;;
4391;SDS011;2210;51.938;8.488;2022-09-24T01:22:43;6.73;;;6.03;;
4391;SDS011;2210;51.938;8.488;2022-09-24T01:27:00;9.27;;;6.50;;
4391;SDS011;2210;51.938;8.488;2022-09-24T01:31:23;6.20;;;5.60;;
4391;SDS011;2210;51.938;8.488;2022-09-24T01:35:30;8.00;;;5.73;;
4391;SDS011;2210;51.938;8.488;2022-09-24T01:39:36;6.53;;;5.90;;
4391;SDS011;2210;51.938;8.488;2022-09-24T01:43:37;6.80;;;5.50;;
4391;SDS011;2210;51.938;8.488;2022-09-24T01:47:38;6.30;;;5.73;;
4391;SDS011;2210;51.938;8.488;2022-09-24T01:51:46;7.27;;;6.30;;
4391;SDS011;2210;51.938;8.488;2022-09-24T01:55:58;5.73;;;5.20;;
4391;SDS011;2210;51.938;8.488;2022-09-24T02:00:14;9.70;;;5.40;;
4391;SDS011;2210;51.938;8.488;2022-09-24T02:04:18;6.30;;;5.70;;
4391;SDS011;2210;51.938;8.488;2022-09-24T02:08:25;6.37;;;5.87;;
4391;SDS011;2210;51.938;8.488;2022-09-24T02:12:31;5.90;;;5.20;;
4391;SDS011;2210;51.938;8.488;2022-09-24T02:16:39;5.20;;;4.80;;
4391;SDS011;2210;51.938;8.488;2022-09-24T02:20:44;8.07;;;5.77;;
4391;SDS011;2210;51.938;8.488;2022-09-24T02:24:51;7.93;;;5.87;;
4391;SDS011;2210;51.938;8.488;2022-09-24T02:28:54;5.60;;;5.10;;
4391;SDS011;2210;51.938;8.488;2022-09-24T02:32:54;7.43;;;6.07;;
4391;SDS011;2210;51.938;8.488;2022-09-24T02:36:59;6.57;;;5.97;;
4391;SDS011;2210;51.938;8.488;2022-09-24T02:41:04;6.73;;;6.03;;
4391;SDS011;2210;51.938;8.488;2022-09-24T02:45:07;8.90;;;6.00;;
4391;SDS011;2210;51.938;8.488;2022-09-24T02:49:09;6.57;;;5.97;;
4391;SDS011;2210;51.938;8.488;2022-09-24T02:53:09;8.23;;;6.00;;
4391;SDS011;2210;51.938;8.488;2022-09-24T02:57:10;8.43;;;5.57;;
4391;SDS011;2210;51.938;8.488;2022-09-24T03:01:10;6.05;;;5.55;;
4391;SDS011;2210;51.938;8.488;2022-09-24T03:05:10;7.10;;;5.90;;
4391;SDS011;2210;51.938;8.488;2022-09-24T03:09:11;7.10;;;5.77;;
4391;SDS011;2210;51.938;8.488;2022-09-24T03:13:12;6.43;;;5.83;;
4391;SDS011;2210;51.938;8.488;2022-09-24T03:17:12;6.60;;;5.43;;
4391;SDS011;2210;51.938;8.488;2022-09-24T03:21:13;6.47;;;5.80;;
4391;SDS011;2210;51.938;8.488;2022-09-24T03:25:15;6.33;;;5.80;;
4391;SDS011;2210;51.938;8.488;2022-09-24T03:29:16;5.70;;;5.20;;
4391;SDS011;2210;51.938;8.488;2022-09-24T03:33:37;5.70;;;5.10;;
4391;SDS011;2210;51.938;8.488;2022-09-24T03:37:40;5.73;;;5.23;;
4391;SDS011;2210;51.938;8.488;2022-09-24T03:41:42;6.67;;;5.97;;
4391;SDS011;2210;51.938;8.488;2022-09-24T03:45:42;5.50;;;5.00;;
4391;SDS011;2210;51.938;8.488;2022-09-24T03:49:42;6.10;;;5.50;;
4391;SDS011;2210;51.938;8.488;2022-09-24T03:53:43;7.72;;;5.53;;
4391;SDS011;2210;51.938;8.488;2022-09-24T03:57:43;5.97;;;5.37;;
4391;SDS011;2210;51.938;8.488;2022-09-24T04:01:44;9.60;;;6.07;;
4391;SDS011;2210;51.938;8.488;2022-09-24T04:05:44;7.90;;;5.50;;
4391;SDS011;2210;51.938;8.488;2022-09-24T04:09:44;5.13;;;4.63;;
4391;SDS011;2210;51.938;8.488;2022-09-24T04:13:45;5.88;;;5.38;;
4391;SDS011;2210;51.938;8.488;2022-09-24T04:17:49;6.03;;;5.15;;
4391;SDS011;2210;51.938;8.488;2022-09-24T04:21:50;6.17;;;5.67;;
4391;SDS011;2210;51.938;8.488;2022-09-24T04:25:50;8.93;;;5.57;;
4391;SDS011;2210;51.938;8.488;2022-09-24T04:29:51;5.63;;;5.10;;
4391;SDS011;2210;51.938;8.488;2022-09-24T04:33:53;10.40;;;5.80;;
4391;SDS011;2210;51.938;8.488;2022-09-24T04:37:53;6.50;;;5.20;;
4391;SDS011;2210;51.938;8.488;2022-09-24T04:41:54;5.60;;;5.20;;
4391;SDS011;2210;51.938;8.488;2022-09-24T04:45:55;9.80;;;6.00;;
4391;SDS011;2210;51.938;8.488;2022-09-24T04:49:58;8.17;;;6.07;;
4391;SDS011;2210;51.938;8.488;2022-09-24T04:53:59;7.80;;;6.37;;
4391;SDS011;2210;51.938;8.488;2022-09-24T04:58:01;9.10;;;6.10;;
4391;SDS011;2210;51.938;8.488;2022-09-24T05:02:02;6.20;;;5.63;;
4391;SDS011;2210;51.938;8.488;2022-09-24T05:06:03;7.20;;;6.30;;
4391;SDS011;2210;51.938;8.488;2022-09-24T05:10:03;6.80;;;5.53;;
4391;SDS011;2210;51.938;8.488;2022-09-24T05:14:05;9.03;;;5.40;;
4391;SDS011;2210;51.938;8.488;2022-09-24T05:18:05;8.80;;;5.87;;
4391;SDS011;2210;51.938;8.488;2022-09-24T05:22:06;6.63;;;6.00;;
4391;SDS011;2210;51.938;8.488;2022-09-24T05:26:06;10.73;;;6.07;;
4391;SDS011;2210;51.938;8.488;2022-09-24T05:30:25;6.93;;;5.77;;
4391;SDS011;2210;51.938;8.488;2022-09-24T05:34:25;8.40;;;6.10;;
4391;SDS011;2210;51.938;8.488;2022-09-24T05:38:26;7.18;;;6.47;;
4391;SDS011;2210;51.938;8.488;2022-09-24T05:42:26;9.10;;;6.33;;
4391;SDS011;2210;51.938;8.488;2022-09-24T05:46:26;8.82;;;6.70;;
4391;SDS011;2210;51.938;8.488;2022-09-24T05:50:28;8.20;;;6.47;;
4391;SDS011;2210;51.938;8.488;2022-09-24T05:54:29;8.47;;;6.40;;
4391;SDS011;2210;51.938;8.488;2022-09-24T05:58:29;7.13;;;6.43;;
4391;SDS011;2210;51.938;8.488;2022-09-24T06:02:29;10.00;;;7.00;;
4391;SDS011;2210;51.938;8.488;2022-09-24T06:06:30;8.85;;;6.88;;
4391;SDS011;2210;51.938;8.488;2022-09-24T06:10:30;7.93;;;7.13;;
4391;SDS011;2210;51.938;8.488;2022-09-24T06:14:31;8.87;;;7.70;;
4391;SDS011;2210;51.938;8.488;2022-09-24T06:18:35;9.67;;;8.60;;
4391;SDS011;2210;51.938;8.488;2022-09-24T06:22:39;8.87;;;8.03;;
4391;SDS011;2210;51.938;8.488;2022-09-24T06:26:39;8.20;;;7.37;;
4391;SDS011;2210;51.938;8.488;2022-09-24T06:30:40;11.13;;;7.90;;
4391;SDS011;2210;51.938;8.488;2022-09-24T06:34:40;8.37;;;7.57;;
4391;SDS011;2210;51.938;8.488;2022-09-24T06:38:40;8.03;;;7.37;;
4391;SDS011;2210;51.938;8.488;2022-09-24T06:42:41;9.13;;;8.03;;
4391;SDS011;2210;51.938;8.488;2022-09-24T06:46:41;8.43;;;7.63;;
4391;SDS011;2210;51.938;8.488;2022-09-24T06:50:42;9.03;;;7.60;;
4391;SDS011;2210;51.938;8.488;2022-09-24T06:54:44;9.97;;;7.70;;
4391;SDS011;2210;51.938;8.488;2022-09-24T06:58:44;10.13;;;8.52;;
4391;SDS011;2210;51.938;8.488;2022-09-24T07:02:49;9.10;;;8.30;;
4391;SDS011;2210;51.938;8.488;2022-09-24T07:06:52;9.43;;;8.53;;
4391;SDS011;2210;51.938;8.488;2022-09-24T07:11:12;9.07;;;8.17;;
4391;SDS011;2210;51.938;8.488;2022-09-24T07:15:18;10.87;;;9.43;;
4391;SDS011;2210;51.938;8.488;2022-09-24T07:19:18;11.87;;;9.13;;
4391;SDS011;2210;51.938;8.488;2022-09-24T07:23:19;11.00;;;9.80;;
4391;SDS011;2210;51.938;8.488;2022-09-24T07:27:20;12.10;;;9.80;;
4391;SDS011;2210;51.938;8.488;2022-09-24T07:31:21;11.97;;;10.23;;
4391;SDS011;2210;51.938;8.488;2022-09-24T07:35:21;12.40;;;10.80;;
4391;SDS011;2210;51.938;8.488;2022-09-24T07:39:22;12.07;;;10.87;;
4391;SDS011;2210;51.938;8.488;2022-09-24T07:43:24;12.73;;;11.47;;
4391;SDS011;2210;51.938;8.488;2022-09-24T07:47:24;16.57;;;11.63;;
4391;SDS011;2210;51.938;8.488;2022-09-24T07:51:25;13.77;;;11.60;;
4391;SDS011;2210;51.938;8.488;2022-09-24T07:55:27;16.20;;;12.40;;
4391;SDS011;2210;51.938;8.488;2022-09-24T07:59:27;20.23;;;13.15;;
4391;SDS011;2210;51.938;8.488;2022-09-24T08:03:29;15.60;;;13.10;;
4391;SDS011;2210;51.938;8.488;2022-09-24T08:07:30;15.50;;;14.00;;
4391;SDS011;2210;51.938;8.488;2022-09-24T08:11:30;17.70;;;15.20;;
4391;SDS011;2210;51.938;8.488;2022-09-24T08:15:30;15.68;;;14.18;;
4391;SDS011;2210;51.938;8.488;2022-09-24T08:19:31;14.88;;;13.40;;
4391;SDS011;2210;51.938;8.488;2022-09-24T08:23:32;19.23;;;16.20;;
4391;SDS011;2210;51.938;8.488;2022-09-24T08:27:33;21.80;;;15.57;;
4391;SDS011;2210;51.938;8.488;2022-09-24T08:31:36;18.40;;;16.27;;
4391;SDS011;2210;51.938;8.488;2022-09-24T08:35:36;23.60;;;16.80;;
4391;SDS011;2210;51.938;8.488;2022-09-24T08:39:39;19.47;;;15.83;;
4391;SDS011;2210;51.938;8.488;2022-09-24T08:48:12;20.97;;;16.90;;
4391;SDS011;2210;51.938;8.488;2022-09-24T08:57:22;23.70;;;19.20;;
4391;SDS011;2210;51.938;8.488;2022-09-24T09:01:35;21.30;;;19.10;;
4391;SDS011;2210;51.938;8.488;2022-09-24T09:10:32;29.73;;;19.50;;
4391;SDS011;2210;51.938;8.488;2022-09-24T09:14:38;25.90;;;21.03;;
4391;SDS011;2210;51.938;8.488;2022-09-24T09:18:42;28.00;;;22.97;;
4391;SDS011;2210;51.938;8.488;2022-09-24T09:22:48;32.83;;;23.60;;
4391;SDS011;2210;51.938;8.488;2022-09-24T09:26:55;27.87;;;23.40;;
4391;SDS011;2210;51.938;8.488;2022-09-24T09:35:13;26.03;;;21.17;;
4391;SDS011;2210;51.938;8.488;2022-09-24T09:43:39;24.60;;;21.50;;
4391;SDS011;2210;51.938;8.488;2022-09-24T09:47:48;21.97;;;19.63;;
4391;SDS011;2210;51.938;8.488;2022-09-24T09:51:52;27.60;;;23.93;;
4391;SDS011;2210;51.938;8.488;2022-09-24T09:55:57;27.77;;;23.07;;
4391;SDS011;2210;51.938;8.488;2022-09-24T10:00:00;24.07;;;21.50;;
4391;SDS011;2210;51.938;8.488;2022-09-24T10:04:01;24.30;;;20.83;;
4391;SDS011;2210;51.938;8.488;2022-09-24T10:08:03;25.83;;;21.60;;
4391;SDS011;2210;51.938;8.488;2022-09-24T10:12:17;25.10;;;22.43;;
4391;SDS011;2210;51.938;8.488;2022-09-24T10:16:21;24.23;;;21.60;;
4391;SDS011;2210;51.938;8.488;2022-09-24T10:20:25;24.83;;;21.80;;
4391;SDS011;2210;51.938;8.488;2022-09-24T10:24:28;21.87;;;19.57;;
4391;SDS011;2210;51.938;8.488;2022-09-24T10:28:28;26.33;;;21.30;;
4391;SDS011;2210;51.938;8.488;2022-09-24T10:32:54;32.70;;;21.27;;
4391;SDS011;2210;51.938;8.488;2022-09-24T10:37:00;25.50;;;21.97;;
4391;SDS011;2210;51.938;8.488;2022-09-24T10:41:12;23.53;;;21.03;;
4391;SDS011;2210;51.938;8.488;2022-09-24T10:45:13;22.10;;;19.80;;
4391;SDS011;2210;51.938;8.488;2022-09-24T10:49:25;23.97;;;19.33;;
4391;SDS011;2210;51.938;8.488;2022-09-24T10:53:49;19.60;;;17.53;;
4391;SDS011;2210;51.938;8.488;2022-09-24T11:06:34;22.90;;;20.10;;
4391;SDS011;2210;51.938;8.488;2022-09-24T11:10:47;20.13;;;17.30;;
4391;SDS011;2210;51.938;8.488;2022-09-24T11:15:15;25.00;;;19.87;;
4391;SDS011;2210;51.938;8.488;2022-09-24T11:28:28;20.70;;;18.50;;
4391;SDS011;2210;51.938;8.488;2022-09-24T11:32:46;25.20;;;21.67;;
4391;SDS011;2210;51.938;8.488;2022-09-24T11:41:06;24.00;;;20.40;;
4391;SDS011;2210;51.938;8.488;2022-09-24T11:50:04;21.03;;;18.77;;
4391;SDS011;2210;51.938;8.488;2022-09-24T11:59:37;20.70;;;18.47;;
4391;SDS011;2210;51.938;8.488;2022-09-24T12:07:36;23.23;;;18.63;;
4391;SDS011;2210;51.938;8.488;2022-09-24T12:11:52;22.10;;;19.80;;
4391;SDS011;2210;51.938;8.488;2022-09-24T12:16:10;22.57;;;20.13;;
4391;SDS011;2210;51.938;8.488;2022-09-24T12:24:24;24.20;;;20.70;;
4391;SDS011;2210;51.938;8.488;2022-09-24T12:28:32;24.50;;;19.90;;
4391;SDS011;2210;51.938;8.488;2022-09-24T12:33:00;22.20;;;19.80;;
4391;SDS011;2210;51.938;8.488;2022-09-24T12:37:08;24.93;;;21.40;;
4391;SDS011;2210;51.938;8.488;2022-09-24T12:41:17;11.57;;;9.53;;
4391;SDS011;2210;51.938;8.488;2022-09-24T12:45:23;17.70;;;13.40;;
4391;SDS011;2210;51.938;8.488;2022-09-24T12:53:28;16.05;;;13.25;;
4391;SDS011;2210;51.938;8.488;2022-09-24T12:57:34;18.97;;;16.07;;
4391;SDS011;2210;51.938;8.488;2022-09-24T13:01:38;18.60;;;16.70;;
4391;SDS011;2210;51.938;8.488;2022-09-24T13:09:39;19.15;;;17.25;;
4391;SDS011;2210;51.938;8.488;2022-09-24T13:13:39;20.67;;;18.50;;
4391;SDS011;2210;51.938;8.488;2022-09-24T13:17:43;19.90;;;17.80;;
4391;SDS011;2210;51.938;8.488;2022-09-24T13:21:51;18.80;;;17.00;;
4391;SDS011;2210;51.938;8.488;2022-09-24T13:25:54;25.70;;;18.27;;
4391;SDS011;2210;51.938;8.488;2022-09-24T13:30:05;22.07;;;19.33;;
4391;SDS011;2210;51.938;8.488;2022-09-24T13:34:19;24.03;;;21.50;;
4391;SDS011;2210;51.938;8.488;2022-09-24T13:38:24;21.37;;;19.20;;
4391;SDS011;2210;51.938;8.488;2022-09-24T13:42:44;22.20;;;18.90;;
4391;SDS011;2210;51.938;8.488;2022-09-24T13:46:55;19.30;;;17.40;;
4391;SDS011;2210;51.938;8.488;2022-09-24T13:51:00;20.13;;;17.73;;
4391;SDS011;2210;51.938;8.488;2022-09-24T13:55:17;20.43;;;17.80;;
4391;SDS011;2210;51.938;8.488;2022-09-24T13:59:21;21.47;;;18.90;;
4391;SDS011;2210;51.938;8.488;2022-09-24T14:03:23;22.50;;;20.17;;
4391;SDS011;2210;51.938;8.488;2022-09-24T14:07:25;22.83;;;20.50;;
4391;SDS011;2210;51.938;8.488;2022-09-24T14:11:27;22.10;;;19.70;;
4391;SDS011;2210;51.938;8.488;2022-09-24T14:15:27;24.17;;;21.58;;
4391;SDS011;2210;51.938;8.488;2022-09-24T14:19:28;21.37;;;19.10;;
4391;SDS011;2210;51.938;8.488;2022-09-24T14:23:29;22.20;;;19.90;;
4391;SDS011;2210;51.938;8.488;2022-09-24T14:27:39;22.60;;;20.40;;
4391;SDS011;2210;51.938;8.488;2022-09-24T14:31:44;24.00;;;20.80;;
4391;SDS011;2210;51.938;8.488;2022-09-24T14:35:48;22.87;;;20.47;;
4391;SDS011;2210;51.938;8.488;2022-09-24T14:39:55;24.83;;;22.30;;
4391;SDS011;2210;51.938;8.488;2022-09-24T14:44:05;24.70;;;22.20;;
4391;SDS011;2210;51.938;8.488;2022-09-24T14:48:18;26.00;;;23.40;;
4391;SDS011;2210;51.938;8.488;2022-09-24T14:52:28;25.00;;;22.07;;
4391;SDS011;2210;51.938;8.488;2022-09-24T14:56:30;25.90;;;23.20;;
4391;SDS011;2210;51.938;8.488;2022-09-24T15:00:36;26.97;;;22.93;;
4391;SDS011;2210;51.938;8.488;2022-09-24T15:04:48;25.53;;;22.83;;
4391;SDS011;2210;51.938;8.488;2022-09-24T15:09:03;25.27;;;22.60;;
4391;SDS011;2210;51.938;8.488;2022-09-24T15:13:12;25.67;;;22.67;;
4391;SDS011;2210;51.938;8.488;2022-09-24T15:17:22;27.37;;;24.17;;
4391;SDS011;2210;51.938;8.488;2022-09-24T15:21:23;26.97;;;23.73;;
4391;SDS011;2210;51.938;8.488;2022-09-24T15:25:24;28.00;;;25.00;;
4391;SDS011;2210;51.938;8.488;2022-09-24T15:29:24;27.80;;;24.17;;
4391;SDS011;2210;51.938;8.488;2022-09-24T15:33:25;28.77;;;24.93;;
4391;SDS011;2210;51.938;8.488;2022-09-24T15:37:26;28.27;;;24.37;;
4391;SDS011;2210;51.938;8.488;2022-09-24T15:41:28;24.53;;;21.97;;
4391;SDS011;2210;51.938;8.488;2022-09-24T15:45:28;24.93;;;22.47;;
4391;SDS011;2210;51.938;8.488;2022-09-24T15:49:29;23.87;;;21.40;;
4391;SDS011;2210;51.938;8.488;2022-09-24T15:53:30;26.23;;;22.90;;
4391;SDS011;2210;51.938;8.488;2022-09-24T15:57:30;26.13;;;23.57;;
4391;SDS011;2210;51.938;8.488;2022-09-24T16:01:31;27.07;;;24.07;;
4391;SDS011;2210;51.938;8.488;2022-09-24T16:05:31;25.98;;;23.30;;
4391;SDS011;2210;51.938;8.488;2022-09-24T16:09:31;30.67;;;24.20;;
4391;SDS011;2210;51.938;8.488;2022-09-24T16:13:31;26.63;;;23.38;;
4391;SDS011;2210;51.938;8.488;2022-09-24T16:17:34;27.73;;;24.77;;
4391;SDS011;2210;51.938;8.488;2022-09-24T16:21:34;27.27;;;24.33;;
4391;SDS011;2210;51.938;8.488;2022-09-24T16:25:34;27.63;;;24.63;;
4391;SDS011;2210;51.938;8.488;2022-09-24T16:29:35;27.20;;;24.30;;
4391;SDS011;2210;51.938;8.488;2022-09-24T16:33:38;26.63;;;23.77;;
4391;SDS011;2210;51.938;8.488;2022-09-24T16:37:39;26.07;;;22.73;;
4391;SDS011;2210;51.938;8.488;2022-09-24T16:41:39;28.67;;;24.87;;
4391;SDS011;2210;51.938;8.488;2022-09-24T16:45:40;28.63;;;23.50;;
4391;SDS011;2210;51.938;8.488;2022-09-24T16:49:40;25.93;;;22.97;;
4391;SDS011;2210;51.938;8.488;2022-09-24T16:53:41;25.37;;;22.67;;
4391;SDS011;2210;51.938;8.488;2022-09-24T16:57:42;23.30;;;21.00;;
4391;SDS011;2210;51.938;8.488;2022-09-24T17:01:42;28.33;;;22.90;;
4391;SDS011;2210;51.938;8.488;2022-09-24T17:05:43;24.63;;;22.10;;
4391;SDS011;2210;51.938;8.488;2022-09-24T17:09:43;24.47;;;21.10;;
4391;SDS011;2210;51.938;8.488;2022-09-24T17:14:06;23.67;;;21.20;;
4391;SDS011;2210;51.938;8.488;2022-09-24T17:18:07;25.97;;;23.10;;
4391;SDS011;2210;51.938;8.488;2022-09-24T17:22:07;23.70;;;20.77;;
4391;SDS011;2210;51.938;8.488;2022-09-24T17:26:08;25.53;;;22.87;;
4391;SDS011;2210;51.938;8.488;2022-09-24T17:30:10;25.40;;;22.77;;
4391;SDS011;2210;51.938;8.488;2022-09-24T17:34:11;24.43;;;21.80;;
4391;SDS011;2210;51.938;8.488;2022-09-24T17:38:14;24.70;;;22.20;;
4391;SDS011;2210;51.938;8.488;2022-09-24T17:42:15;23.60;;;21.30;;
4391;SDS011;2210;51.938;8.488;2022-09-24T17:46:16;23.23;;;20.83;;
4391;SDS011;2210;51.938;8.488;2022-09-24T17:50:20;36.53;;;22.10;;
4391;SDS011;2210;51.938;8.488;2022-09-24T17:54:26;24.10;;;21.60;;
4391;SDS011;2210;51.938;8.488;2022-09-24T17:58:27;25.23;;;22.77;;
4391;SDS011;2210;51.938;8.488;2022-09-24T18:02:39;24.67;;;21.53;;
4391;SDS011;2210;51.938;8.488;2022-09-24T18:06:43;24.77;;;22.17;;
4391;SDS011;2210;51.938;8.488;2022-09-24T18:10:44;25.60;;;22.90;;
4391;SDS011;2210;51.938;8.488;2022-09-24T18:14:45;30.42;;;23.27;;
4391;SDS011;2210;51.938;8.488;2022-09-24T18:18:45;28.10;;;25.20;;
4391;SDS011;2210;51.938;8.488;2022-09-24T18:22:48;26.90;;;24.00;;
4391;SDS011;2210;51.938;8.488;2022-09-24T18:26:48;28.83;;;25.93;;
4391;SDS011;2210;51.938;8.488;2022-09-24T18:30:59;28.17;;;24.67;;
4391;SDS011;2210;51.938;8.488;2022-09-24T18:35:05;28.30;;;25.30;;
4391;SDS011;2210;51.938;8.488;2022-09-24T18:39:09;28.27;;;25.00;;
4391;SDS011;2210;51.938;8.488;2022-09-24T18:43:14;27.20;;;24.50;;
4391;SDS011;2210;51.938;8.488;2022-09-24T18:51:46;30.43;;;25.90;;
4391;SDS011;2210;51.938;8.488;2022-09-24T18:55:46;30.30;;;27.13;;
4391;SDS011;2210;51.938;8.488;2022-09-24T18:59:46;27.87;;;24.90;;
4391;SDS011;2210;51.938;8.488;2022-09-24T19:03:47;27.73;;;24.83;;
4391;SDS011;2210;51.938;8.488;2022-09-24T19:07:51;29.00;;;24.93;;
4391;SDS011;2210;51.938;8.488;2022-09-24T19:12:05;27.63;;;24.43;;
4391;SDS011;2210;51.938;8.488;2022-09-24T19:16:36;27.37;;;24.67;;
4391;SDS011;2210;51.938;8.488;2022-09-24T19:20:38;30.63;;;27.20;;
4391;SDS011;2210;51.938;8.488;2022-09-24T19:24:47;31.60;;;28.20;;
4391;SDS011;2210;51.938;8.488;2022-09-24T19:28:50;28.60;;;25.50;;
4391;SDS011;2210;51.938;8.488;2022-09-24T19:32:54;29.20;;;26.10;;
4391;SDS011;2210;51.938;8.488;2022-09-24T19:36:57;27.13;;;24.10;;
4391;SDS011;2210;51.938;8.488;2022-09-24T19:41:26;30.07;;;26.90;;
4391;SDS011;2210;51.938;8.488;2022-09-24T20:05:54;27.63;;;24.73;;
4391;SDS011;2210;51.938;8.488;2022-09-24T20:20:24;19.63;;;17.53;;
4391;SDS011;2210;51.938;8.488;2022-09-24T20:24:24;19.13;;;17.13;;
4391;SDS011;2210;51.938;8.488;2022-09-24T20:28:31;17.60;;;15.80;;
4391;SDS011;2210;51.938;8.488;2022-09-24T20:32:33;20.80;;;15.77;;
4391;SDS011;2210;51.938;8.488;2022-09-24T20:36:34;17.07;;;15.27;;
4391;SDS011;2210;51.938;8.488;2022-09-24T20:41:07;20.80;;;14.77;;
4391;SDS011;2210;51.938;8.488;2022-09-24T20:45:29;15.73;;;14.03;;
4391;SDS011;2210;51.938;8.488;2022-09-24T20:49:35;16.23;;;14.53;;
4391;SDS011;2210;51.938;8.488;2022-09-24T21:13:07;14.67;;;13.27;;
4391;SDS011;2210;51.938;8.488;2022-09-24T21:17:10;15.63;;;13.77;;
4391;SDS011;2210;51.938;8.488;2022-09-24T21:21:44;16.47;;;13.87;;
4391;SDS011;2210;51.938;8.488;2022-09-24T21:25:43;14.87;;;13.47;;
4391;SDS011;2210;51.938;8.488;2022-09-24T21:29:44;15.18;;;13.57;;
4391;SDS011;2210;51.938;8.488;2022-09-24T21:33:47;14.20;;;12.73;;
4391;SDS011;2210;51.938;8.488;2022-09-24T21:37:48;15.13;;;13.63;;
4391;SDS011;2210;51.938;8.488;2022-09-24T21:41:49;16.70;;;13.97;;
4391;SDS011;2210;51.938;8.488;2022-09-24T21:46:00;15.70;;;14.10;;
4391;SDS011;2210;51.938;8.488;2022-09-24T21:50:03;15.53;;;13.67;;
4391;SDS011;2210;51.938;8.488;2022-09-24T21:54:04;15.60;;;14.00;;
4391;SDS011;2210;51.938;8.488;2022-09-24T21:58:06;14.40;;;12.90;;
4391;SDS011;2210;51.938;8.488;2022-09-24T22:02:06;16.20;;;13.53;;
4391;SDS011;2210;51.938;8.488;2022-09-24T22:06:09;16.60;;;14.27;;
4391;SDS011;2210;51.938;8.488;2022-09-24T22:10:10;15.67;;;13.97;;
4391;SDS011;2210;51.938;8.488;2022-09-24T22:14:11;18.83;;;14.63;;
4391;SDS011;2210;51.938;8.488;2022-09-24T22:18:12;19.23;;;13.63;;
4391;SDS011;2210;51.938;8.488;2022-09-24T22:22:12;16.83;;;14.90;;
4391;SDS011;2210;51.938;8.488;2022-09-24T22:26:13;17.60;;;15.10;;
4391;SDS011;2210;51.938;8.488;2022-09-24T22:30:13;20.60;;;16.93;;
4391;SDS011;2210;51.938;8.488;2022-09-24T22:34:14;19.80;;;16.43;;
4391;SDS011;2210;51.938;8.488;2022-09-24T22:38:46;19.57;;;16.80;;
4391;SDS011;2210;51.938;8.488;2022-09-24T22:42:50;21.90;;;16.77;;
4391;SDS011;2210;51.938;8.488;2022-09-24T22:46:51;24.83;;;18.03;;
4391;SDS011;2210;51.938;8.488;2022-09-24T22:50:51;19.70;;;16.43;;
4391;SDS011;2210;51.938;8.488;2022-09-24T22:54:51;17.83;;;15.57;;
4391;SDS011;2210;51.938;8.488;2022-09-24T22:58:53;17.58;;;15.60;;
4391;SDS011;2210;51.938;8.488;2022-09-24T23:02:54;19.30;;;15.17;;
4391;SDS011;2210;51.938;8.488;2022-09-24T23:06:55;17.37;;;15.63;;
4391;SDS011;2210;51.938;8.488;2022-09-24T23:10:55;17.70;;;15.70;;
4391;SDS011;2210;51.938;8.488;2022-09-24T23:14:55;16.27;;;14.60;;
4391;SDS011;2210;51.938;8.488;2022-09-24T23:18:58;17.67;;;14.67;;
4391;SDS011;2210;51.938;8.488;2022-09-24T23:23:00;19.20;;;15.10;;
4391;SDS011;2210;51.938;8.488;2022-09-24T23:27:00;17.50;;;15.00;;
4391;SDS011;2210;51.938;8.488;2022-09-24T23:31:00;21.77;;;14.73;;
4391;SDS011;2210;51.938;8.488;2022-09-24T23:35:01;18.80;;;15.10;;
4391;SDS011;2210;51.938;8.488;2022-09-24T23:39:02;17.50;;;15.43;;
4391;SDS011;2210;51.938;8.488;2022-09-24T23:43:03;22.37;;;17.00;;
4391;SDS011;2210;51.938;8.488;2022-09-24T23:47:03;18.53;;;16.63;;
4391;SDS011;2210;51.938;8.488;2022-09-24T23:51:04;22.67;;;17.27;;
4391;SDS011;2210;51.938;8.488;2022-09-24T23:55:06;18.10;;;16.20;;
4391;SDS011;2210;51.938;8.488;2022-09-24T23:59:06;21.30;;;17.20;;
